DAL1152 KDEN-KDFW
Flight info
| Callsign | DAL1152 |
|---|---|
| Flight time | 1h 28m |
| Altitude | 35000 |
| Route | SLEEK2 SLEEK EZEEE MDANO VKTRY2 |
| Aircraft | A320/M-SDE3FGHIRWY/LB1 |
Departure
| Time | 2026-05-05 21:43 |
|---|---|
| Airport | Denver International Airport (KDEN) |
Arrival
| Time | 2026-05-05 23:11 |
|---|---|
| Airport | Dallas Fort Worth International Airport (KDFW) |
| Time | Latitude | Longitude | Altitude | Speed | Heading |
|---|---|---|---|---|---|
| 2026-05-05 21:18 | 39.85441 | -104.67073 | 5363 ft | 0 kts | 189° |
| 2026-05-05 21:34 | 39.85460 | -104.67069 | 5362 ft | 4 kts | 189° |
| 2026-05-05 21:35 | 39.85487 | -104.67063 | 5364 ft | 4 kts | 189° |
| 2026-05-05 21:35 | 39.85504 | -104.67059 | 5366 ft | 0 kts | 189° |
| 2026-05-05 21:37 | 39.85503 | -104.67067 | 5364 ft | 2 kts | 259° |
| 2026-05-05 21:37 | 39.85533 | -104.67141 | 5364 ft | 17 kts | 297° |
| 2026-05-05 21:38 | 39.85586 | -104.67280 | 5366 ft | 16 kts | 289° |
| 2026-05-05 21:38 | 39.85591 | -104.67417 | 5366 ft | 14 kts | 271° |
| 2026-05-05 21:38 | 39.85592 | -104.67535 | 5366 ft | 12 kts | 270° |
| 2026-05-05 21:38 | 39.85593 | -104.67642 | 5366 ft | 11 kts | 273° |
| 2026-05-05 21:39 | 39.85594 | -104.67750 | 5366 ft | 16 kts | 270° |
| 2026-05-05 21:39 | 39.85594 | -104.67912 | 5366 ft | 19 kts | 270° |
| 2026-05-05 21:39 | 39.85595 | -104.68086 | 5366 ft | 20 kts | 270° |
| 2026-05-05 21:39 | 39.85596 | -104.68279 | 5366 ft | 20 kts | 270° |
| 2026-05-05 21:40 | 39.85645 | -104.68397 | 5364 ft | 17 kts | 349° |
| 2026-05-05 21:40 | 39.85761 | -104.68393 | 5365 ft | 17 kts | 359° |
| 2026-05-05 21:40 | 39.85886 | -104.68395 | 5364 ft | 19 kts | 0° |
| 2026-05-05 21:40 | 39.86021 | -104.68393 | 5363 ft | 20 kts | 1° |
| 2026-05-05 21:41 | 39.86162 | -104.68390 | 5365 ft | 21 kts | 0° |
| 2026-05-05 21:41 | 39.86312 | -104.68388 | 5366 ft | 22 kts | 360° |
| 2026-05-05 21:41 | 39.86425 | -104.68441 | 5365 ft | 18 kts | 287° |
| 2026-05-05 21:41 | 39.86430 | -104.68606 | 5366 ft | 19 kts | 271° |
| 2026-05-05 21:42 | 39.86494 | -104.68717 | 5366 ft | 16 kts | 353° |
| 2026-05-05 21:42 | 39.86662 | -104.68717 | 5366 ft | 47 kts | 360° |
| 2026-05-05 21:42 | 39.87214 | -104.68709 | 5365 ft | 109 kts | 360° |
| 2026-05-05 21:42 | 39.88150 | -104.68699 | 5365 ft | 158 kts | 1° |
| 2026-05-05 21:43 | 39.89394 | -104.68667 | 5399 ft | 197 kts | 6° |
| 2026-05-05 21:43 | 39.90801 | -104.68582 | 6010 ft | 205 kts | 4° |
| 2026-05-05 21:43 | 39.92218 | -104.68568 | 6994 ft | 202 kts | 3° |
| 2026-05-05 21:43 | 39.93645 | -104.68586 | 7516 ft | 212 kts | 1° |
| 2026-05-05 21:44 | 39.95195 | -104.68598 | 7729 ft | 232 kts | 4° |
| 2026-05-05 21:44 | 39.96876 | -104.68586 | 8036 ft | 252 kts | 7° |
| 2026-05-05 21:44 | 39.98592 | -104.67922 | 8423 ft | 269 kts | 34° |
| 2026-05-05 21:44 | 39.99950 | -104.66192 | 8954 ft | 280 kts | 59° |
| 2026-05-05 21:45 | 40.00660 | -104.63821 | 9624 ft | 285 kts | 85° |
| 2026-05-05 21:45 | 40.00514 | -104.61265 | 10243 ft | 288 kts | 110° |
| 2026-05-05 21:45 | 39.99487 | -104.58963 | 10491 ft | 304 kts | 138° |
| 2026-05-05 21:45 | 39.97662 | -104.57482 | 10835 ft | 316 kts | 162° |
| 2026-05-05 21:46 | 39.95564 | -104.56515 | 11488 ft | 324 kts | 164° |
| 2026-05-05 21:46 | 39.93416 | -104.55510 | 12128 ft | 331 kts | 163° |
| 2026-05-05 21:46 | 39.91233 | -104.54475 | 12746 ft | 338 kts | 164° |
| 2026-05-05 21:46 | 39.88996 | -104.53408 | 13421 ft | 344 kts | 165° |
| 2026-05-05 21:47 | 39.86727 | -104.52571 | 14017 ft | 344 kts | 176° |
| 2026-05-05 21:47 | 39.84348 | -104.52072 | 14632 ft | 348 kts | 176° |
| 2026-05-05 21:47 | 39.81941 | -104.51566 | 15259 ft | 352 kts | 176° |
| 2026-05-05 21:47 | 39.79516 | -104.51058 | 15880 ft | 356 kts | 177° |
| 2026-05-05 21:48 | 39.77053 | -104.50544 | 16494 ft | 360 kts | 177° |
| 2026-05-05 21:48 | 39.74569 | -104.50025 | 17094 ft | 363 kts | 177° |
| 2026-05-05 21:48 | 39.72054 | -104.49501 | 17679 ft | 367 kts | 177° |
| 2026-05-05 21:48 | 39.69525 | -104.48976 | 18271 ft | 371 kts | 178° |
| 2026-05-05 21:49 | 39.66964 | -104.48445 | 18781 ft | 374 kts | 177° |
| 2026-05-05 21:49 | 39.64373 | -104.47910 | 19293 ft | 377 kts | 177° |
| 2026-05-05 21:49 | 39.61777 | -104.47378 | 19827 ft | 380 kts | 177° |
| 2026-05-05 21:49 | 39.59144 | -104.46838 | 20344 ft | 383 kts | 177° |
| 2026-05-05 21:50 | 39.56501 | -104.46294 | 20841 ft | 386 kts | 177° |
| 2026-05-05 21:50 | 39.53832 | -104.45743 | 21338 ft | 390 kts | 176° |
| 2026-05-05 21:50 | 39.51143 | -104.45176 | 21855 ft | 393 kts | 176° |
| 2026-05-05 21:50 | 39.48431 | -104.44549 | 22370 ft | 397 kts | 175° |
| 2026-05-05 21:51 | 39.45703 | -104.43879 | 22836 ft | 400 kts | 174° |
| 2026-05-05 21:51 | 39.42962 | -104.43191 | 23336 ft | 403 kts | 174° |
| 2026-05-05 21:51 | 39.40200 | -104.42498 | 23773 ft | 406 kts | 174° |
| 2026-05-05 21:51 | 39.37412 | -104.41806 | 24184 ft | 409 kts | 174° |
| 2026-05-05 21:52 | 39.31804 | -104.40439 | 25032 ft | 411 kts | 175° |
| 2026-05-05 21:52 | 39.28987 | -104.39760 | 25448 ft | 413 kts | 175° |
| 2026-05-05 21:52 | 39.26156 | -104.39082 | 25848 ft | 415 kts | 175° |
| 2026-05-05 21:53 | 39.23307 | -104.38404 | 26232 ft | 417 kts | 175° |
| 2026-05-05 21:53 | 39.20446 | -104.37723 | 26615 ft | 419 kts | 175° |
| 2026-05-05 21:53 | 39.17571 | -104.37035 | 27001 ft | 421 kts | 175° |
| 2026-05-05 21:53 | 39.14718 | -104.36348 | 27356 ft | 423 kts | 175° |
| 2026-05-05 21:54 | 39.11784 | -104.35572 | 27705 ft | 427 kts | 174° |
| 2026-05-05 21:54 | 39.08927 | -104.34702 | 28059 ft | 430 kts | 172° |
| 2026-05-05 21:54 | 39.05988 | -104.33731 | 28410 ft | 432 kts | 172° |
| 2026-05-05 21:54 | 39.03100 | -104.32749 | 28752 ft | 435 kts | 172° |
| 2026-05-05 21:55 | 39.00169 | -104.31755 | 29093 ft | 436 kts | 172° |
| 2026-05-05 21:55 | 38.97225 | -104.30773 | 29419 ft | 438 kts | 172° |
| 2026-05-05 21:55 | 38.94258 | -104.29808 | 29739 ft | 440 kts | 173° |
| 2026-05-05 21:55 | 38.91282 | -104.28860 | 30022 ft | 442 kts | 174° |
| 2026-05-05 21:56 | 38.88290 | -104.27915 | 30295 ft | 443 kts | 174° |
| 2026-05-05 21:56 | 38.85294 | -104.26973 | 30553 ft | 444 kts | 174° |
| 2026-05-05 21:56 | 38.82296 | -104.26027 | 30810 ft | 445 kts | 175° |
| 2026-05-05 21:56 | 38.79279 | -104.25071 | 31060 ft | 446 kts | 175° |
| 2026-05-05 21:57 | 38.76266 | -104.24116 | 31307 ft | 447 kts | 175° |
| 2026-05-05 21:57 | 38.73256 | -104.23159 | 31651 ft | 445 kts | 175° |
| 2026-05-05 21:57 | 38.70259 | -104.22203 | 31972 ft | 443 kts | 176° |
| 2026-05-05 21:57 | 38.67283 | -104.21250 | 32414 ft | 439 kts | 178° |
| 2026-05-05 21:58 | 38.64324 | -104.20308 | 32706 ft | 438 kts | 178° |
| 2026-05-05 21:58 | 38.61364 | -104.19379 | 32921 ft | 439 kts | 178° |
| 2026-05-05 21:58 | 38.58435 | -104.18460 | 33213 ft | 438 kts | 179° |
| 2026-05-05 21:58 | 38.55480 | -104.17531 | 33523 ft | 437 kts | 179° |
| 2026-05-05 21:59 | 38.52536 | -104.16603 | 33831 ft | 435 kts | 179° |
| 2026-05-05 21:59 | 38.49600 | -104.15541 | 34104 ft | 447 kts | 171° |
| 2026-05-05 21:59 | 38.46791 | -104.13614 | 34320 ft | 474 kts | 157° |
| 2026-05-05 21:59 | 38.44196 | -104.10946 | 34594 ft | 480 kts | 153° |
| 2026-05-05 22:00 | 38.41637 | -104.08167 | 34827 ft | 482 kts | 152° |
| 2026-05-05 22:00 | 38.36592 | -104.02471 | 34915 ft | 488 kts | 151° |
| 2026-05-05 22:01 | 38.31525 | -103.96695 | 34904 ft | 489 kts | 151° |
| 2026-05-05 22:01 | 38.26458 | -103.90998 | 34911 ft | 488 kts | 152° |
| 2026-05-05 22:02 | 38.22181 | -103.86243 | 34920 ft | 487 kts | 152° |
| 2026-05-05 22:02 | 38.17069 | -103.80579 | 34933 ft | 487 kts | 153° |
| 2026-05-05 22:03 | 38.11992 | -103.74959 | 34950 ft | 487 kts | 153° |
| 2026-05-05 22:03 | 38.06888 | -103.69303 | 34928 ft | 487 kts | 153° |
| 2026-05-05 22:04 | 38.01741 | -103.63716 | 34970 ft | 486 kts | 154° |
| 2026-05-05 22:04 | 37.96541 | -103.58245 | 34904 ft | 485 kts | 154° |
| 2026-05-05 22:05 | 37.91332 | -103.52786 | 34906 ft | 486 kts | 154° |
| 2026-05-05 22:05 | 37.86132 | -103.47307 | 34872 ft | 486 kts | 154° |
| 2026-05-05 22:06 | 37.80946 | -103.41828 | 34883 ft | 486 kts | 154° |
| 2026-05-05 22:06 | 37.75761 | -103.36363 | 34887 ft | 485 kts | 154° |
| 2026-05-05 22:07 | 37.70570 | -103.30906 | 34889 ft | 485 kts | 154° |
| 2026-05-05 22:07 | 37.65381 | -103.25464 | 34891 ft | 485 kts | 154° |
| 2026-05-05 22:08 | 37.60225 | -103.20070 | 34888 ft | 484 kts | 154° |
| 2026-05-05 22:08 | 37.55031 | -103.14650 | 34886 ft | 485 kts | 154° |
| 2026-05-05 22:09 | 37.49833 | -103.09240 | 34873 ft | 485 kts | 155° |
| 2026-05-05 22:09 | 37.44630 | -103.03823 | 34848 ft | 486 kts | 154° |
| 2026-05-05 22:10 | 37.39421 | -102.98404 | 34866 ft | 486 kts | 155° |
| 2026-05-05 22:10 | 37.34205 | -102.92992 | 34879 ft | 486 kts | 155° |
| 2026-05-05 22:11 | 37.28977 | -102.87590 | 34885 ft | 486 kts | 155° |
| 2026-05-05 22:11 | 37.23753 | -102.82195 | 34842 ft | 486 kts | 155° |
| 2026-05-05 22:12 | 37.18560 | -102.76837 | 34840 ft | 486 kts | 154° |
| 2026-05-05 22:12 | 37.13325 | -102.71447 | 34854 ft | 487 kts | 155° |
| 2026-05-05 22:13 | 37.08085 | -102.66065 | 34862 ft | 487 kts | 155° |
| 2026-05-05 22:13 | 37.02838 | -102.60690 | 34845 ft | 487 kts | 154° |
| 2026-05-05 22:14 | 36.97587 | -102.55321 | 34851 ft | 487 kts | 154° |
| 2026-05-05 22:14 | 36.92333 | -102.49958 | 34861 ft | 487 kts | 154° |
| 2026-05-05 22:15 | 36.87079 | -102.44595 | 34873 ft | 487 kts | 154° |
| 2026-05-05 22:15 | 36.81866 | -102.39277 | 34814 ft | 487 kts | 154° |
| 2026-05-05 22:16 | 36.76611 | -102.33946 | 34865 ft | 487 kts | 154° |
| 2026-05-05 22:16 | 36.71346 | -102.28624 | 34873 ft | 486 kts | 155° |
| 2026-05-05 22:17 | 36.66096 | -102.23312 | 34875 ft | 486 kts | 154° |
| 2026-05-05 22:17 | 36.60846 | -102.17999 | 34861 ft | 486 kts | 155° |
| 2026-05-05 22:18 | 36.55587 | -102.12697 | 34860 ft | 486 kts | 155° |
| 2026-05-05 22:18 | 36.50333 | -102.07412 | 34871 ft | 486 kts | 155° |
| 2026-05-05 22:19 | 36.45082 | -102.02131 | 34865 ft | 486 kts | 155° |
| 2026-05-05 22:19 | 36.39809 | -101.96844 | 34871 ft | 487 kts | 155° |
| 2026-05-05 22:20 | 36.34536 | -101.91561 | 34850 ft | 487 kts | 155° |
| 2026-05-05 22:20 | 36.29291 | -101.86312 | 34863 ft | 487 kts | 155° |
| 2026-05-05 22:21 | 36.24009 | -101.81047 | 34866 ft | 487 kts | 155° |
| 2026-05-05 22:21 | 36.18724 | -101.75789 | 34871 ft | 487 kts | 155° |
| 2026-05-05 22:22 | 36.13442 | -101.70535 | 34853 ft | 487 kts | 155° |
| 2026-05-05 22:22 | 36.08145 | -101.65284 | 34849 ft | 488 kts | 155° |
| 2026-05-05 22:23 | 36.02839 | -101.60034 | 34864 ft | 489 kts | 155° |
| 2026-05-05 22:23 | 35.97524 | -101.54776 | 34867 ft | 489 kts | 155° |
| 2026-05-05 22:24 | 35.92201 | -101.49512 | 34859 ft | 490 kts | 155° |
| 2026-05-05 22:24 | 35.86902 | -101.44297 | 34885 ft | 490 kts | 155° |
| 2026-05-05 22:25 | 35.81568 | -101.39046 | 34949 ft | 492 kts | 154° |
| 2026-05-05 22:25 | 35.79032 | -101.36126 | 34960 ft | 505 kts | 148° |
| 2026-05-05 22:25 | 35.76569 | -101.33041 | 34957 ft | 505 kts | 148° |
| 2026-05-05 22:26 | 35.71645 | -101.26864 | 34919 ft | 505 kts | 148° |
| 2026-05-05 22:26 | 35.66737 | -101.20721 | 34925 ft | 503 kts | 148° |
| 2026-05-05 22:27 | 35.61833 | -101.14600 | 34962 ft | 502 kts | 148° |
| 2026-05-05 22:27 | 35.56923 | -101.08493 | 34976 ft | 501 kts | 148° |
| 2026-05-05 22:28 | 35.52015 | -101.02407 | 34978 ft | 501 kts | 148° |
| 2026-05-05 22:28 | 35.47135 | -100.96372 | 34959 ft | 501 kts | 148° |
| 2026-05-05 22:29 | 35.42228 | -100.90299 | 34941 ft | 501 kts | 148° |
| 2026-05-05 22:29 | 35.37311 | -100.84223 | 34921 ft | 501 kts | 148° |
| 2026-05-05 22:30 | 35.32399 | -100.78171 | 34893 ft | 500 kts | 148° |
| 2026-05-05 22:30 | 35.27494 | -100.72130 | 34835 ft | 500 kts | 149° |
| 2026-05-05 22:31 | 35.22617 | -100.66140 | 34853 ft | 500 kts | 149° |
| 2026-05-05 22:31 | 35.17706 | -100.60125 | 34854 ft | 500 kts | 149° |
| 2026-05-05 22:32 | 35.12789 | -100.54116 | 34862 ft | 500 kts | 149° |
| 2026-05-05 22:32 | 35.07859 | -100.48100 | 34854 ft | 501 kts | 149° |
| 2026-05-05 22:33 | 35.02930 | -100.42082 | 34821 ft | 502 kts | 149° |
| 2026-05-05 22:33 | 34.97979 | -100.36048 | 34825 ft | 503 kts | 149° |
| 2026-05-05 22:34 | 34.93019 | -100.30019 | 34832 ft | 504 kts | 149° |
| 2026-05-05 22:34 | 34.88053 | -100.24000 | 34840 ft | 504 kts | 149° |
| 2026-05-05 22:35 | 34.83070 | -100.17977 | 34845 ft | 505 kts | 149° |
| 2026-05-05 22:35 | 34.78086 | -100.11955 | 34818 ft | 506 kts | 149° |
| 2026-05-05 22:36 | 34.73083 | -100.05924 | 34826 ft | 506 kts | 149° |
| 2026-05-05 22:36 | 34.68109 | -99.99939 | 34828 ft | 507 kts | 149° |
| 2026-05-05 22:37 | 34.63093 | -99.93909 | 34831 ft | 507 kts | 149° |
| 2026-05-05 22:37 | 34.58077 | -99.87886 | 34804 ft | 507 kts | 149° |
| 2026-05-05 22:38 | 34.53055 | -99.81869 | 34806 ft | 508 kts | 149° |
| 2026-05-05 22:38 | 34.48023 | -99.75851 | 34811 ft | 509 kts | 149° |
| 2026-05-05 22:39 | 34.42982 | -99.69828 | 34810 ft | 510 kts | 149° |
| 2026-05-05 22:39 | 34.37922 | -99.63806 | 34817 ft | 510 kts | 149° |
| 2026-05-05 22:40 | 34.32979 | -99.57558 | 34805 ft | 528 kts | 140° |
| 2026-05-05 22:40 | 34.30908 | -99.53817 | 34811 ft | 544 kts | 131° |
| 2026-05-05 22:40 | 34.29032 | -99.49839 | 34811 ft | 545 kts | 130° |
| 2026-05-05 22:41 | 34.25270 | -99.41878 | 34804 ft | 545 kts | 131° |
| 2026-05-05 22:41 | 34.21482 | -99.33926 | 34813 ft | 546 kts | 131° |
| 2026-05-05 22:42 | 34.17685 | -99.25974 | 34822 ft | 546 kts | 131° |
| 2026-05-05 22:42 | 34.13870 | -99.18028 | 34831 ft | 547 kts | 131° |
| 2026-05-05 22:43 | 34.10060 | -99.10094 | 34800 ft | 547 kts | 131° |
| 2026-05-05 22:43 | 34.06241 | -99.02152 | 34804 ft | 547 kts | 130° |
| 2026-05-05 22:43 | 34.04331 | -98.98185 | 34645 ft | 547 kts | 130° |
| 2026-05-05 22:44 | 34.02427 | -98.94225 | 34276 ft | 547 kts | 131° |
| 2026-05-05 22:44 | 34.00499 | -98.90234 | 32957 ft | 556 kts | 130° |
| 2026-05-05 22:44 | 33.98555 | -98.86225 | 32189 ft | 551 kts | 130° |
| 2026-05-05 22:44 | 33.96633 | -98.82253 | 31404 ft | 548 kts | 130° |
| 2026-05-05 22:45 | 33.94739 | -98.78336 | 30538 ft | 547 kts | 129° |
| 2026-05-05 22:45 | 33.92826 | -98.74380 | 29586 ft | 546 kts | 129° |
| 2026-05-05 22:45 | 33.90933 | -98.70465 | 29187 ft | 534 kts | 129° |
| 2026-05-05 22:45 | 33.89089 | -98.66644 | 28667 ft | 524 kts | 129° |
| 2026-05-05 22:46 | 33.87253 | -98.62872 | 28094 ft | 517 kts | 129° |
| 2026-05-05 22:46 | 33.85431 | -98.59172 | 27541 ft | 511 kts | 130° |
| 2026-05-05 22:46 | 33.83623 | -98.55526 | 26975 ft | 505 kts | 130° |
| 2026-05-05 22:46 | 33.81831 | -98.51922 | 26433 ft | 500 kts | 130° |
| 2026-05-05 22:47 | 33.80063 | -98.48343 | 25901 ft | 495 kts | 129° |
| 2026-05-05 22:47 | 33.78323 | -98.44792 | 25391 ft | 490 kts | 129° |
| 2026-05-05 22:47 | 33.76608 | -98.41273 | 24805 ft | 485 kts | 129° |
| 2026-05-05 22:47 | 33.74915 | -98.37785 | 24291 ft | 481 kts | 129° |
| 2026-05-05 22:48 | 33.73237 | -98.34328 | 23789 ft | 476 kts | 129° |
| 2026-05-05 22:48 | 33.71575 | -98.30914 | 23299 ft | 472 kts | 128° |
| 2026-05-05 22:48 | 33.69918 | -98.27531 | 22581 ft | 470 kts | 128° |
| 2026-05-05 22:48 | 33.68238 | -98.24103 | 21473 ft | 481 kts | 128° |
| 2026-05-05 22:49 | 33.66563 | -98.20697 | 21268 ft | 465 kts | 128° |
| 2026-05-05 22:49 | 33.64957 | -98.17426 | 20619 ft | 450 kts | 128° |
| 2026-05-05 22:49 | 33.63905 | -98.15291 | 20101 ft | 443 kts | 128° |
| 2026-05-05 22:49 | 33.61828 | -98.11094 | 19080 ft | 432 kts | 129° |
| 2026-05-05 22:50 | 33.60816 | -98.09061 | 18587 ft | 426 kts | 129° |
| 2026-05-05 22:50 | 33.58827 | -98.05078 | 17554 ft | 415 kts | 129° |
| 2026-05-05 22:50 | 33.57361 | -98.02142 | 17132 ft | 407 kts | 129° |
| 2026-05-05 22:50 | 33.55905 | -97.99229 | 16385 ft | 409 kts | 129° |
| 2026-05-05 22:51 | 33.54453 | -97.96324 | 15899 ft | 406 kts | 128° |
| 2026-05-05 22:51 | 33.53012 | -97.93440 | 15596 ft | 398 kts | 128° |
| 2026-05-05 22:51 | 33.51620 | -97.90643 | 15464 ft | 385 kts | 129° |
| 2026-05-05 22:51 | 33.50698 | -97.88790 | 15291 ft | 380 kts | 129° |
| 2026-05-05 22:52 | 33.49351 | -97.86087 | 14947 ft | 376 kts | 129° |
| 2026-05-05 22:52 | 33.48020 | -97.83425 | 14321 ft | 370 kts | 129° |
| 2026-05-05 22:52 | 33.46721 | -97.80829 | 13611 ft | 366 kts | 129° |
| 2026-05-05 22:52 | 33.45417 | -97.78221 | 12938 ft | 365 kts | 128° |
| 2026-05-05 22:53 | 33.44125 | -97.75632 | 12586 ft | 360 kts | 127° |
| 2026-05-05 22:53 | 33.42853 | -97.73085 | 12231 ft | 355 kts | 127° |
| 2026-05-05 22:53 | 33.41589 | -97.70556 | 11797 ft | 353 kts | 127° |
| 2026-05-05 22:53 | 33.40333 | -97.68043 | 11524 ft | 346 kts | 127° |
| 2026-05-05 22:54 | 33.39122 | -97.65612 | 11399 ft | 335 kts | 127° |
| 2026-05-05 22:54 | 33.37879 | -97.63309 | 11191 ft | 323 kts | 133° |
| 2026-05-05 22:54 | 33.36557 | -97.61167 | 10762 ft | 316 kts | 132° |
| 2026-05-05 22:54 | 33.35256 | -97.59058 | 10537 ft | 315 kts | 132° |
| 2026-05-05 22:55 | 33.33955 | -97.56952 | 10300 ft | 314 kts | 131° |
| 2026-05-05 22:55 | 33.32657 | -97.54847 | 10080 ft | 315 kts | 131° |
| 2026-05-05 22:55 | 33.31363 | -97.52747 | 9846 ft | 313 kts | 131° |
| 2026-05-05 22:55 | 33.30075 | -97.50662 | 9602 ft | 311 kts | 131° |
| 2026-05-05 22:56 | 33.28791 | -97.48580 | 9297 ft | 310 kts | 131° |
| 2026-05-05 22:56 | 33.27517 | -97.46508 | 8999 ft | 308 kts | 131° |
| 2026-05-05 22:56 | 33.26017 | -97.44768 | 8625 ft | 295 kts | 154° |
| 2026-05-05 22:56 | 33.24152 | -97.43903 | 8212 ft | 285 kts | 171° |
| 2026-05-05 22:57 | 33.22231 | -97.43357 | 8024 ft | 284 kts | 173° |
| 2026-05-05 22:57 | 33.20320 | -97.42932 | 8027 ft | 283 kts | 176° |
| 2026-05-05 22:57 | 33.18371 | -97.42699 | 8031 ft | 281 kts | 182° |
| 2026-05-05 22:57 | 33.16417 | -97.42591 | 8029 ft | 281 kts | 182° |
| 2026-05-05 22:58 | 33.14460 | -97.42499 | 8029 ft | 281 kts | 182° |
| 2026-05-05 22:58 | 33.12508 | -97.42413 | 7928 ft | 279 kts | 182° |
| 2026-05-05 22:58 | 33.10596 | -97.42328 | 7733 ft | 269 kts | 182° |
| 2026-05-05 22:58 | 33.08765 | -97.42240 | 7613 ft | 257 kts | 183° |
| 2026-05-05 22:59 | 33.07022 | -97.42146 | 7489 ft | 245 kts | 182° |
| 2026-05-05 22:59 | 33.05352 | -97.42056 | 7325 ft | 236 kts | 182° |
| 2026-05-05 22:59 | 33.03725 | -97.41964 | 7027 ft | 233 kts | 182° |
| 2026-05-05 22:59 | 33.02110 | -97.41870 | 6718 ft | 232 kts | 182° |
| 2026-05-05 23:00 | 32.98903 | -97.41715 | 6110 ft | 231 kts | 182° |
| 2026-05-05 23:00 | 32.97300 | -97.41602 | 5818 ft | 231 kts | 176° |
| 2026-05-05 23:00 | 32.95719 | -97.41270 | 5512 ft | 231 kts | 173° |
| 2026-05-05 23:01 | 32.94155 | -97.40887 | 5257 ft | 229 kts | 173° |
| 2026-05-05 23:01 | 32.92595 | -97.40524 | 4993 ft | 225 kts | 172° |
| 2026-05-05 23:01 | 32.91064 | -97.40208 | 4742 ft | 222 kts | 173° |
| 2026-05-05 23:01 | 32.89556 | -97.39908 | 4508 ft | 218 kts | 172° |
| 2026-05-05 23:02 | 32.88052 | -97.39615 | 4182 ft | 220 kts | 172° |
| 2026-05-05 23:02 | 32.86552 | -97.39334 | 4031 ft | 222 kts | 173° |
| 2026-05-05 23:02 | 32.85012 | -97.39055 | 4036 ft | 225 kts | 173° |
| 2026-05-05 23:02 | 32.83474 | -97.38770 | 4032 ft | 225 kts | 171° |
| 2026-05-05 23:03 | 32.81981 | -97.38209 | 4034 ft | 226 kts | 159° |
| 2026-05-05 23:03 | 32.80561 | -97.37408 | 4030 ft | 227 kts | 149° |
| 2026-05-05 23:03 | 32.79307 | -97.36261 | 4034 ft | 228 kts | 141° |
| 2026-05-05 23:03 | 32.78114 | -97.35004 | 4032 ft | 229 kts | 139° |
| 2026-05-05 23:04 | 32.76963 | -97.33690 | 4033 ft | 230 kts | 135° |
| 2026-05-05 23:04 | 32.75905 | -97.32263 | 4033 ft | 231 kts | 133° |
| 2026-05-05 23:04 | 32.74863 | -97.30808 | 4029 ft | 230 kts | 132° |
| 2026-05-05 23:04 | 32.73819 | -97.29373 | 4031 ft | 229 kts | 133° |
| 2026-05-05 23:05 | 32.72766 | -97.27946 | 4032 ft | 230 kts | 132° |
| 2026-05-05 23:05 | 32.71911 | -97.26346 | 4025 ft | 231 kts | 117° |
| 2026-05-05 23:05 | 32.71291 | -97.24577 | 4021 ft | 233 kts | 113° |
| 2026-05-05 23:05 | 32.70716 | -97.22778 | 4024 ft | 234 kts | 112° |
| 2026-05-05 23:06 | 32.70135 | -97.20980 | 4021 ft | 232 kts | 112° |
| 2026-05-05 23:06 | 32.69554 | -97.19191 | 4022 ft | 233 kts | 111° |
| 2026-05-05 23:06 | 32.69120 | -97.17340 | 4023 ft | 233 kts | 102° |
| 2026-05-05 23:06 | 32.68947 | -97.15423 | 4025 ft | 235 kts | 88° |
| 2026-05-05 23:07 | 32.69183 | -97.13492 | 4026 ft | 236 kts | 80° |
| 2026-05-05 23:07 | 32.69524 | -97.11583 | 4024 ft | 236 kts | 78° |
| 2026-05-05 23:07 | 32.69874 | -97.09709 | 3998 ft | 236 kts | 77° |
| 2026-05-05 23:07 | 32.70547 | -97.07910 | 3743 ft | 235 kts | 54° |
| 2026-05-05 23:08 | 32.71668 | -97.06557 | 3566 ft | 231 kts | 34° |
| 2026-05-05 23:08 | 32.73085 | -97.05749 | 3347 ft | 223 kts | 14° |
| 2026-05-05 23:08 | 32.74590 | -97.05548 | 3098 ft | 218 kts | 359° |
| 2026-05-05 23:08 | 32.76098 | -97.05542 | 2831 ft | 215 kts | 360° |
| 2026-05-05 23:09 | 32.77589 | -97.05536 | 2553 ft | 213 kts | 358° |
| 2026-05-05 23:09 | 32.79048 | -97.05528 | 2272 ft | 203 kts | 358° |
| 2026-05-05 23:09 | 32.80411 | -97.05521 | 2004 ft | 189 kts | 358° |
| 2026-05-05 23:09 | 32.81682 | -97.05515 | 1770 ft | 177 kts | 0° |
| 2026-05-05 23:10 | 32.82862 | -97.05507 | 1594 ft | 164 kts | 357° |
| 2026-05-05 23:10 | 32.83995 | -97.05502 | 1393 ft | 164 kts | 358° |
| 2026-05-05 23:10 | 32.85119 | -97.05497 | 1170 ft | 164 kts | 355° |
| 2026-05-05 23:10 | 32.86236 | -97.05492 | 948 ft | 158 kts | 356° |
| 2026-05-05 23:11 | 32.87326 | -97.05485 | 753 ft | 155 kts | 358° |
| 2026-05-05 23:11 | 32.88382 | -97.05471 | 617 ft | 151 kts | 358° |
| 2026-05-05 23:11 | 32.89302 | -97.05481 | 598 ft | 96 kts | 2° |
| 2026-05-05 23:11 | 32.89715 | -97.05475 | 598 ft | 41 kts | 1° |
| 2026-05-05 23:12 | 32.89941 | -97.05405 | 598 ft | 30 kts | 30° |
| 2026-05-05 23:12 | 32.90089 | -97.05294 | 598 ft | 15 kts | 32° |
| 2026-05-05 23:12 | 32.90118 | -97.05197 | 598 ft | 12 kts | 90° |
| 2026-05-05 23:12 | 32.90118 | -97.05100 | 598 ft | 11 kts | 90° |
| 2026-05-05 23:13 | 32.90118 | -97.05013 | 598 ft | 10 kts | 91° |
| 2026-05-05 23:13 | 32.90116 | -97.04898 | 598 ft | 22 kts | 91° |
| 2026-05-05 23:13 | 32.90122 | -97.04790 | 598 ft | 3 kts | 47° |
| 2026-05-05 23:13 | 32.90197 | -97.04767 | 598 ft | 20 kts | 359° |
| 2026-05-05 23:14 | 32.90326 | -97.04734 | 598 ft | 19 kts | 59° |
| 2026-05-05 23:14 | 32.90355 | -97.04604 | 598 ft | 10 kts | 71° |
| 2026-05-05 23:14 | 32.90369 | -97.04550 | 598 ft | 0 kts | 73° |